Liberty of The Seas — C6VQ8 — position and weather

sailwx.info

Track history (hours):
 
Tides and Currents Weather Stations Pressure Air Temp Water Temp Dewpoint Dewpoint Depression Visibility Wind Speed Wind Dir Waves Ship Positions

Liberty of The Seas

Last reported at 2019-Oct-15 22:41 UTC. Time now 2019-Oct-19 00:14 UTC.
Position N 20°39' W 086°47'.

Type: Passenger vessel. MMSI: 309436000.

Date/timePositionNaut miles runAvg speedWind from/ knotsBaromVisibWave heightAir tempDewpointWater temp
2019-Oct-15 22:41N 20°39' W 086°47'419.4
2019-Oct-15 22:30N 20°39' W 086°51'1020.3
2019-Oct-15 22:01N 20°32' W 086°58'3 5.7
2019-Oct-15 21:30N 20°29' W 086°59'0 0.0
2019-Oct-15 21:00N 20°29' W 086°59'0 0.0
2019-Oct-15 20:30N 20°29' W 086°59'0 0.0
2019-Oct-15 19:57N 20°29' W 086°59'0 0.0
2019-Oct-15 19:30N 20°29' W 086°59'0 0.0
2019-Oct-15 19:00N 20°29' W 086°59'0 0.0
2019-Oct-15 18:30N 20°29' W 086°59'0 0.0
2019-Oct-15 18:00N 20°29' W 086°59'0 0.0
2019-Oct-15 17:30N 20°29' W 086°59'0 0.0
2019-Oct-15 16:54N 20°29' W 086°59'0 0.0
2019-Oct-15 16:30N 20°29' W 086°59'0 0.0
2019-Oct-15 16:00N 20°29' W 086°59'0 0.0
2019-Oct-15 15:30N 20°29' W 086°59'0 0.0
2019-Oct-15 15:00N 20°29' W 086°59'0 0.0
2019-Oct-15 14:30N 20°29' W 086°59'0 0.0
2019-Oct-15 14:00N 20°29' W 086°59'0 0.0
2019-Oct-15 13:30N 20°29' W 086°59'0 0.0
2019-Oct-15 13:00N 20°29' W 086°59'0 0.0
2019-Oct-15 12:30N 20°29' W 086°59'0 0.0
2019-Oct-15 12:00N 20°29' W 086°59'1 1.0
2019-Oct-15 11:31N 20°29' W 086°59'714.8
2019-Oct-15 11:00N 20°36' W 086°55'917.9
2019-Oct-15 10:31N 20°43' W 086°50'34218.5
2019-Oct-14 16:00N 25°30' W 090°12'31518.8 120 / 81016.010.8 27.0
2019-Oct-13 23:14N 29°09' W 094°27'415.6
2019-Oct-13 22:57N 29°12' W 094°31'1014.6
2019-Oct-13 22:17N 29°19' W 094°38'312.0
2019-Oct-13 22:00N 29°20' W 094°41'5 9.5
2019-Oct-13 21:30N 29°19' W 094°47'1 2.3
2019-Oct-13 20:54N 29°19' W 094°48'0 0.0
2019-Oct-13 20:30N 29°19' W 094°48'0 0.0
2019-Oct-13 20:00N 29°19' W 094°48'0 0.0
2019-Oct-13 19:24N 29°19' W 094°48'0 0.0
2019-Oct-13 19:00N 29°19' W 094°48'0 0.0
2019-Oct-13 18:30N 29°19' W 094°48'0 0.0
2019-Oct-13 18:00N 29°19' W 094°48'0 0.0
2019-Oct-13 17:27N 29°19' W 094°48'0 0.0
2019-Oct-13 17:00N 29°19' W 094°48'0 0.0
2019-Oct-13 16:30N 29°19' W 094°48'0 0.0
2019-Oct-13 16:00N 29°19' W 094°48'0 0.0
2019-Oct-13 15:30N 29°19' W 094°48'0 0.0
2019-Oct-13 14:48N 29°19' W 094°48'0 0.0
2019-Oct-13 14:30N 29°19' W 094°48'0 0.0
2019-Oct-13 14:00N 29°19' W 094°48'0 0.0
2019-Oct-13 13:30N 29°19' W 094°48'0 0.0
2019-Oct-13 13:00N 29°19' W 094°48'0 0.0
2019-Oct-13 12:30N 29°19' W 094°48'0 0.0
2019-Oct-13 12:00N 29°19' W 094°48'0 0.0
2019-Oct-13 11:30N 29°19' W 094°48'0 0.0
2019-Oct-13 11:00N 29°19' W 094°48'1 2.4
2019-Oct-13 10:30N 29°19' W 094°47'5 9.9
2019-Oct-13 10:01N 29°20' W 094°41'714.1
2019-Oct-13 09:30N 29°17' W 094°35'815.6
2019-Oct-13 09:00N 29°12' W 094°28'815.9
2019-Oct-13 08:30N 29°07' W 094°20'54719.2
2019-Oct-12 04:00N 23°12' W 086°36'45119.6 070 / 271014.010.8 28.028.0
2019-Oct-11 05:00N 19°18' W 079°42'29 1.2 040 / 121011.010.8 28.028.0
2019-Oct-10 04:00N 18°54' W 080°00'39913.5 140 / 81013.010.8 28.028.0
2019-Oct-08 22:30N 20°40' W 086°49'1020.4
2019-Oct-08 22:00N 20°33' W 086°57'5 9.5
2019-Oct-08 21:30N 20°29' W 086°59'0 0.0
2019-Oct-08 20:59N 20°29' W 086°59'0 0.0
2019-Oct-08 20:29N 20°29' W 086°59'0 0.0
2019-Oct-08 19:59N 20°29' W 086°59'0 0.0
2019-Oct-08 19:29N 20°29' W 086°59'0 0.0
2019-Oct-08 18:44N 20°29' W 086°59'0 0.0
2019-Oct-08 18:29N 20°29' W 086°59'0 0.0
2019-Oct-08 17:59N 20°29' W 086°59'0 0.0
2019-Oct-08 17:29N 20°29' W 086°59'0 0.0
2019-Oct-08 16:59N 20°29' W 086°59'0 0.0
2019-Oct-08 16:29N 20°29' W 086°59'0 0.0
2019-Oct-08 15:59N 20°29' W 086°59'0 0.0
2019-Oct-08 15:29N 20°29' W 086°59'0 0.0
2019-Oct-08 14:59N 20°29' W 086°59'0 0.0
2019-Oct-08 14:29N 20°29' W 086°59'0 0.0
2019-Oct-08 13:59N 20°29' W 086°59'0 0.0
2019-Oct-08 13:29N 20°29' W 086°59'0 0.0
2019-Oct-08 12:53N 20°29' W 086°59'0 0.0
2019-Oct-08 12:29N 20°29' W 086°59'0 0.0
2019-Oct-08 11:59N 20°29' W 086°59'1 2.4
2019-Oct-08 11:30N 20°30' W 086°59'714.3
2019-Oct-08 11:00N 20°36' W 086°55'815.4
2019-Oct-08 10:30N 20°43' W 086°50'66818.3
2019-Oct-06 21:55N 29°19' W 094°38'615.0
2019-Oct-06 21:30N 29°21' W 094°45'3 6.0
2019-Oct-06 20:58N 29°19' W 094°48'0 0.0
2019-Oct-06 20:28N 29°19' W 094°48'0 0.0
2019-Oct-06 19:49N 29°19' W 094°48'0 0.0
2019-Oct-06 19:28N 29°19' W 094°48'0 0.0
2019-Oct-06 18:58N 29°19' W 094°48'0 0.0
2019-Oct-06 18:19N 29°19' W 094°48'0 0.0
2019-Oct-06 17:58N 29°19' W 094°48'0 0.0
2019-Oct-06 17:28N 29°19' W 094°48'0 0.0
2019-Oct-06 16:58N 29°19' W 094°48'0 0.0
2019-Oct-06 16:28N 29°19' W 094°48'0 0.0
2019-Oct-06 15:55N 29°19' W 094°48'0 0.0
2019-Oct-06 15:28N 29°19' W 094°48'0 0.0
2019-Oct-06 14:58N 29°19' W 094°48'0 0.0
2019-Oct-06 14:28N 29°19' W 094°48'0 0.0
2019-Oct-06 13:49N 29°19' W 094°48'0 0.0
2019-Oct-06 13:25N 29°19' W 094°48'0 0.0
2019-Oct-06 12:58N 29°19' W 094°48'0 0.0
2019-Oct-06 12:25N 29°19' W 094°48'0 0.0
2019-Oct-06 11:58N 29°19' W 094°48'0 0.0
2019-Oct-06 11:22N 29°19' W 094°48'0 0.2
2019-Oct-06 11:00N 29°19' W 094°48'1 2.5
2019-Oct-06 10:30N 29°19' W 094°47'510.6
2019-Oct-06 09:59N 29°20' W 094°41'713.9
2019-Oct-06 09:30N 29°16' W 094°34'916.1
2019-Oct-06 08:56N 29°11' W 094°26'716.3
2019-Oct-06 08:29N 29°06' W 094°19'916.1
2019-Oct-06 07:56N 29°02' W 094°10'816.6
2019-Oct-06 07:28N 28°57' W 094°03'816.6
2019-Oct-06 06:59N 28°53' W 093°56'816.6
2019-Oct-06 06:30N 28°48' W 093°49'816.8
2019-Oct-06 06:00N 28°43' W 093°41'1217.3
2019-Oct-06 05:17N 28°36' W 093°29'617.4
2019-Oct-06 04:58N 28°33' W 093°24'1017.4
2019-Oct-06 04:25N 28°27' W 093°15'817.3
2019-Oct-06 03:57N 28°23' W 093°07'817.1
2019-Oct-06 03:30N 28°18' W 093°00'1118.7
2019-Oct-06 02:54N 28°11' W 092°51'  
Track history (hours):
 
Tides and Currents Weather Stations Pressure Air Temp Water Temp Dewpoint Dewpoint Depression Visibility Wind Speed Wind Dir Waves Ship Positions

Liberty of The Seas

Last reported at 2019-Oct-15 22:41 UTC. Time now 2019-Oct-19 00:14 UTC.
Position N 20°39' W 086°47'.

Type: Passenger vessel. MMSI: 309436000.

Date/timePositionNaut miles runAvg speedWind from/ knotsBaromVisibWave heightAir tempDewpointWater temp
2019-Oct-15 22:41N 20°39' W 086°47'419.4
2019-Oct-15 22:30N 20°39' W 086°51'1020.3
2019-Oct-15 22:01N 20°32' W 086°58'3 5.7
2019-Oct-15 21:30N 20°29' W 086°59'0 0.0
2019-Oct-15 21:00N 20°29' W 086°59'0 0.0
2019-Oct-15 20:30N 20°29' W 086°59'0 0.0
2019-Oct-15 19:57N 20°29' W 086°59'0 0.0
2019-Oct-15 19:30N 20°29' W 086°59'0 0.0
2019-Oct-15 19:00N 20°29' W 086°59'0 0.0
2019-Oct-15 18:30N 20°29' W 086°59'0 0.0
2019-Oct-15 18:00N 20°29' W 086°59'0 0.0
2019-Oct-15 17:30N 20°29' W 086°59'0 0.0
2019-Oct-15 16:54N 20°29' W 086°59'0 0.0
2019-Oct-15 16:30N 20°29' W 086°59'0 0.0
2019-Oct-15 16:00N 20°29' W 086°59'0 0.0
2019-Oct-15 15:30N 20°29' W 086°59'0 0.0
2019-Oct-15 15:00N 20°29' W 086°59'0 0.0
2019-Oct-15 14:30N 20°29' W 086°59'0 0.0
2019-Oct-15 14:00N 20°29' W 086°59'0 0.0
2019-Oct-15 13:30N 20°29' W 086°59'0 0.0
2019-Oct-15 13:00N 20°29' W 086°59'0 0.0
2019-Oct-15 12:30N 20°29' W 086°59'0 0.0
2019-Oct-15 12:00N 20°29' W 086°59'1 1.0
2019-Oct-15 11:31N 20°29' W 086°59'714.8
2019-Oct-15 11:00N 20°36' W 086°55'917.9
2019-Oct-15 10:31N 20°43' W 086°50'34218.5
2019-Oct-14 16:00N 25°30' W 090°12'31518.8 120 / 81016.010.8 27.0
2019-Oct-13 23:14N 29°09' W 094°27'415.6
2019-Oct-13 22:57N 29°12' W 094°31'1014.6
2019-Oct-13 22:17N 29°19' W 094°38'312.0
2019-Oct-13 22:00N 29°20' W 094°41'5 9.5
2019-Oct-13 21:30N 29°19' W 094°47'1 2.3
2019-Oct-13 20:54N 29°19' W 094°48'0 0.0
2019-Oct-13 20:30N 29°19' W 094°48'0 0.0
2019-Oct-13 20:00N 29°19' W 094°48'0 0.0
2019-Oct-13 19:24N 29°19' W 094°48'0 0.0
2019-Oct-13 19:00N 29°19' W 094°48'0 0.0
2019-Oct-13 18:30N 29°19' W 094°48'0 0.0
2019-Oct-13 18:00N 29°19' W 094°48'0 0.0
2019-Oct-13 17:27N 29°19' W 094°48'0 0.0
2019-Oct-13 17:00N 29°19' W 094°48'0 0.0
2019-Oct-13 16:30N 29°19' W 094°48'0 0.0
2019-Oct-13 16:00N 29°19' W 094°48'0 0.0
2019-Oct-13 15:30N 29°19' W 094°48'0 0.0
2019-Oct-13 14:48N 29°19' W 094°48'0 0.0
2019-Oct-13 14:30N 29°19' W 094°48'0 0.0
2019-Oct-13 14:00N 29°19' W 094°48'0 0.0
2019-Oct-13 13:30N 29°19' W 094°48'0 0.0
2019-Oct-13 13:00N 29°19' W 094°48'0 0.0
2019-Oct-13 12:30N 29°19' W 094°48'0 0.0
2019-Oct-13 12:00N 29°19' W 094°48'0 0.0
2019-Oct-13 11:30N 29°19' W 094°48'0 0.0
2019-Oct-13 11:00N 29°19' W 094°48'1 2.4
2019-Oct-13 10:30N 29°19' W 094°47'5 9.9
2019-Oct-13 10:01N 29°20' W 094°41'714.1
2019-Oct-13 09:30N 29°17' W 094°35'815.6
2019-Oct-13 09:00N 29°12' W 094°28'815.9
2019-Oct-13 08:30N 29°07' W 094°20'54719.2
2019-Oct-12 04:00N 23°12' W 086°36'45119.6 070 / 271014.010.8 28.028.0
2019-Oct-11 05:00N 19°18' W 079°42'29 1.2 040 / 121011.010.8 28.028.0
2019-Oct-10 04:00N 18°54' W 080°00'39913.5 140 / 81013.010.8 28.028.0
2019-Oct-08 22:30N 20°40' W 086°49'1020.4
2019-Oct-08 22:00N 20°33' W 086°57'5 9.5
2019-Oct-08 21:30N 20°29' W 086°59'0 0.0
2019-Oct-08 20:59N 20°29' W 086°59'0 0.0
2019-Oct-08 20:29N 20°29' W 086°59'0 0.0
2019-Oct-08 19:59N 20°29' W 086°59'0 0.0
2019-Oct-08 19:29N 20°29' W 086°59'0 0.0
2019-Oct-08 18:44N 20°29' W 086°59'0 0.0
2019-Oct-08 18:29N 20°29' W 086°59'0 0.0
2019-Oct-08 17:59N 20°29' W 086°59'0 0.0
2019-Oct-08 17:29N 20°29' W 086°59'0 0.0
2019-Oct-08 16:59N 20°29' W 086°59'0 0.0
2019-Oct-08 16:29N 20°29' W 086°59'0 0.0
2019-Oct-08 15:59N 20°29' W 086°59'0 0.0
2019-Oct-08 15:29N 20°29' W 086°59'0 0.0
2019-Oct-08 14:59N 20°29' W 086°59'0 0.0
2019-Oct-08 14:29N 20°29' W 086°59'0 0.0
2019-Oct-08 13:59N 20°29' W 086°59'0 0.0
2019-Oct-08 13:29N 20°29' W 086°59'0 0.0
2019-Oct-08 12:53N 20°29' W 086°59'0 0.0
2019-Oct-08 12:29N 20°29' W 086°59'0 0.0
2019-Oct-08 11:59N 20°29' W 086°59'1 2.4
2019-Oct-08 11:30N 20°30' W 086°59'714.3
2019-Oct-08 11:00N 20°36' W 086°55'815.4
2019-Oct-08 10:30N 20°43' W 086°50'66818.3
2019-Oct-06 21:55N 29°19' W 094°38'615.0
2019-Oct-06 21:30N 29°21' W 094°45'3 6.0
2019-Oct-06 20:58N 29°19' W 094°48'0 0.0
2019-Oct-06 20:28N 29°19' W 094°48'0 0.0
2019-Oct-06 19:49N 29°19' W 094°48'0 0.0
2019-Oct-06 19:28N 29°19' W 094°48'0 0.0
2019-Oct-06 18:58N 29°19' W 094°48'0 0.0
2019-Oct-06 18:19N 29°19' W 094°48'0 0.0
2019-Oct-06 17:58N 29°19' W 094°48'0 0.0
2019-Oct-06 17:28N 29°19' W 094°48'0 0.0
2019-Oct-06 16:58N 29°19' W 094°48'0 0.0
2019-Oct-06 16:28N 29°19' W 094°48'0 0.0
2019-Oct-06 15:55N 29°19' W 094°48'0 0.0
2019-Oct-06 15:28N 29°19' W 094°48'0 0.0
2019-Oct-06 14:58N 29°19' W 094°48'0 0.0
2019-Oct-06 14:28N 29°19' W 094°48'0 0.0
2019-Oct-06 13:49N 29°19' W 094°48'0 0.0
2019-Oct-06 13:25N 29°19' W 094°48'0 0.0
2019-Oct-06 12:58N 29°19' W 094°48'0 0.0
2019-Oct-06 12:25N 29°19' W 094°48'0 0.0
2019-Oct-06 11:58N 29°19' W 094°48'0 0.0
2019-Oct-06 11:22N 29°19' W 094°48'0 0.2
2019-Oct-06 11:00N 29°19' W 094°48'1 2.5
2019-Oct-06 10:30N 29°19' W 094°47'510.6
2019-Oct-06 09:59N 29°20' W 094°41'713.9
2019-Oct-06 09:30N 29°16' W 094°34'916.1
2019-Oct-06 08:56N 29°11' W 094°26'716.3
2019-Oct-06 08:29N 29°06' W 094°19'916.1
2019-Oct-06 07:56N 29°02' W 094°10'816.6
2019-Oct-06 07:28N 28°57' W 094°03'816.6
2019-Oct-06 06:59N 28°53' W 093°56'816.6
2019-Oct-06 06:30N 28°48' W 093°49'816.8
2019-Oct-06 06:00N 28°43' W 093°41'1217.3
2019-Oct-06 05:17N 28°36' W 093°29'617.4
2019-Oct-06 04:58N 28°33' W 093°24'1017.4
2019-Oct-06 04:25N 28°27' W 093°15'817.3
2019-Oct-06 03:57N 28°23' W 093°07'817.1
2019-Oct-06 03:30N 28°18' W 093°00'1118.7
2019-Oct-06 02:54N 28°11' W 092°51'  

Dump ship's entire track history